sensor_id;sensor_type;location;lat;lon;timestamp;P1;durP1;ratioP1;P2;durP2;ratioP2
73130;SDS011;64204;13.766;100.702;2022-11-20T00:00:56;12.07;;;6.93;;
73130;SDS011;64204;13.766;100.702;2022-11-20T00:03:23;15.18;;;6.70;;
73130;SDS011;64204;13.766;100.702;2022-11-20T00:05:50;13.25;;;6.43;;
73130;SDS011;64204;13.766;100.702;2022-11-20T00:08:16;21.25;;;7.35;;
73130;SDS011;64204;13.766;100.702;2022-11-20T00:10:43;11.60;;;6.65;;
73130;SDS011;64204;13.766;100.702;2022-11-20T00:13:10;11.77;;;6.68;;
73130;SDS011;64204;13.766;100.702;2022-11-20T00:15:36;15.85;;;6.93;;
73130;SDS011;64204;13.766;100.702;2022-11-20T00:18:03;14.38;;;6.40;;
73130;SDS011;64204;13.766;100.702;2022-11-20T00:20:30;14.57;;;7.03;;
73130;SDS011;64204;13.766;100.702;2022-11-20T00:22:56;12.90;;;6.88;;
73130;SDS011;64204;13.766;100.702;2022-11-20T00:25:23;17.05;;;6.70;;
73130;SDS011;64204;13.766;100.702;2022-11-20T00:27:50;12.93;;;6.55;;
73130;SDS011;64204;13.766;100.702;2022-11-20T00:30:17;11.43;;;6.53;;
73130;SDS011;64204;13.766;100.702;2022-11-20T00:32:43;13.88;;;6.38;;
73130;SDS011;64204;13.766;100.702;2022-11-20T00:35:10;14.93;;;6.10;;
73130;SDS011;64204;13.766;100.702;2022-11-20T00:37:37;15.95;;;5.90;;
73130;SDS011;64204;13.766;100.702;2022-11-20T00:40:04;14.30;;;6.85;;
73130;SDS011;64204;13.766;100.702;2022-11-20T00:42:31;14.40;;;6.82;;
73130;SDS011;64204;13.766;100.702;2022-11-20T00:44:58;11.73;;;5.90;;
73130;SDS011;64204;13.766;100.702;2022-11-20T00:47:24;9.85;;;6.13;;
73130;SDS011;64204;13.766;100.702;2022-11-20T00:49:51;13.65;;;6.50;;
73130;SDS011;64204;13.766;100.702;2022-11-20T00:52:18;16.98;;;6.65;;
73130;SDS011;64204;13.766;100.702;2022-11-20T00:54:44;11.38;;;6.43;;
73130;SDS011;64204;13.766;100.702;2022-11-20T00:57:11;13.48;;;6.03;;
73130;SDS011;64204;13.766;100.702;2022-11-20T00:59:38;16.73;;;6.40;;
73130;SDS011;64204;13.766;100.702;2022-11-20T01:02:04;13.10;;;6.40;;
73130;SDS011;64204;13.766;100.702;2022-11-20T01:04:31;10.73;;;5.57;;
73130;SDS011;64204;13.766;100.702;2022-11-20T01:06:58;11.63;;;5.65;;
73130;SDS011;64204;13.766;100.702;2022-11-20T01:09:24;14.60;;;5.97;;
73130;SDS011;64204;13.766;100.702;2022-11-20T01:11:51;11.02;;;6.05;;
73130;SDS011;64204;13.766;100.702;2022-11-20T01:14:18;11.57;;;5.88;;
73130;SDS011;64204;13.766;100.702;2022-11-20T01:16:47;12.50;;;6.20;;
73130;SDS011;64204;13.766;100.702;2022-11-20T01:19:18;12.38;;;5.90;;
73130;SDS011;64204;13.766;100.702;2022-11-20T01:21:49;11.02;;;6.43;;
73130;SDS011;64204;13.766;100.702;2022-11-20T01:24:21;10.50;;;5.18;;
73130;SDS011;64204;13.766;100.702;2022-11-20T01:26:49;12.55;;;5.53;;
73130;SDS011;64204;13.766;100.702;2022-11-20T01:31:44;11.68;;;5.20;;
73130;SDS011;64204;13.766;100.702;2022-11-20T01:34:13;13.77;;;5.55;;
73130;SDS011;64204;13.766;100.702;2022-11-20T01:36:41;10.45;;;5.85;;
73130;SDS011;64204;13.766;100.702;2022-11-20T01:39:16;11.35;;;5.60;;
73130;SDS011;64204;13.766;100.702;2022-11-20T01:41:47;10.88;;;5.43;;
73130;SDS011;64204;13.766;100.702;2022-11-20T01:50:14;14.85;;;5.30;;
73130;SDS011;64204;13.766;100.702;2022-11-20T01:53:05;16.23;;;5.35;;
73130;SDS011;64204;13.766;100.702;2022-11-20T01:55:34;16.13;;;6.10;;
73130;SDS011;64204;13.766;100.702;2022-11-20T01:58:05;9.55;;;5.40;;
73130;SDS011;64204;13.766;100.702;2022-11-20T02:00:32;13.65;;;4.95;;
73130;SDS011;64204;13.766;100.702;2022-11-20T02:03:00;11.23;;;4.70;;
73130;SDS011;64204;13.766;100.702;2022-11-20T02:05:41;10.48;;;5.32;;
73130;SDS011;64204;13.766;100.702;2022-11-20T02:08:30;10.43;;;5.45;;
73130;SDS011;64204;13.766;100.702;2022-11-20T02:10:58;11.45;;;5.18;;
73130;SDS011;64204;13.766;100.702;2022-11-20T02:13:24;13.07;;;4.97;;
73130;SDS011;64204;13.766;100.702;2022-11-20T02:16:20;11.45;;;4.68;;
73130;SDS011;64204;13.766;100.702;2022-11-20T02:18:51;12.73;;;5.45;;
73130;SDS011;64204;13.766;100.702;2022-11-20T02:24:14;10.85;;;5.07;;
73130;SDS011;64204;13.766;100.702;2022-11-20T02:26:44;8.98;;;4.60;;
73130;SDS011;64204;13.766;100.702;2022-11-20T02:29:19;12.10;;;5.18;;
73130;SDS011;64204;13.766;100.702;2022-11-20T02:31:51;13.95;;;4.45;;
73130;SDS011;64204;13.766;100.702;2022-11-20T02:34:18;10.88;;;3.92;;
73130;SDS011;64204;13.766;100.702;2022-11-20T02:36:45;9.80;;;5.38;;
73130;SDS011;64204;13.766;100.702;2022-11-20T02:39:12;10.45;;;4.30;;
73130;SDS011;64204;13.766;100.702;2022-11-20T02:41:42;9.60;;;5.05;;
73130;SDS011;64204;13.766;100.702;2022-11-20T02:44:11;12.75;;;5.53;;
73130;SDS011;64204;13.766;100.702;2022-11-20T02:46:38;10.38;;;4.13;;
73130;SDS011;64204;13.766;100.702;2022-11-20T02:49:05;14.50;;;4.88;;
73130;SDS011;64204;13.766;100.702;2022-11-20T02:51:32;10.77;;;4.57;;
73130;SDS011;64204;13.766;100.702;2022-11-20T02:54:02;12.13;;;4.35;;
73130;SDS011;64204;13.766;100.702;2022-11-20T02:56:28;8.40;;;4.38;;
73130;SDS011;64204;13.766;100.702;2022-11-20T02:58:55;8.90;;;3.88;;
73130;SDS011;64204;13.766;100.702;2022-11-20T03:01:22;7.88;;;3.88;;
73130;SDS011;64204;13.766;100.702;2022-11-20T03:03:49;9.32;;;3.55;;
73130;SDS011;64204;13.766;100.702;2022-11-20T03:06:16;12.43;;;3.88;;
73130;SDS011;64204;13.766;100.702;2022-11-20T03:08:43;5.95;;;2.83;;
73130;SDS011;64204;13.766;100.702;2022-11-20T03:11:09;6.00;;;3.08;;
73130;SDS011;64204;13.766;100.702;2022-11-20T03:13:36;8.90;;;3.40;;
73130;SDS011;64204;13.766;100.702;2022-11-20T03:16:10;7.90;;;3.28;;
73130;SDS011;64204;13.766;100.702;2022-11-20T03:18:39;9.15;;;3.28;;
73130;SDS011;64204;13.766;100.702;2022-11-20T03:21:07;6.93;;;3.05;;
73130;SDS011;64204;13.766;100.702;2022-11-20T03:23:34;9.82;;;3.30;;
73130;SDS011;64204;13.766;100.702;2022-11-20T03:26:17;7.05;;;2.90;;
73130;SDS011;64204;13.766;100.702;2022-11-20T03:28:50;6.47;;;3.15;;
73130;SDS011;64204;13.766;100.702;2022-11-20T03:31:20;8.82;;;3.88;;
73130;SDS011;64204;13.766;100.702;2022-11-20T03:33:49;10.63;;;3.50;;
73130;SDS011;64204;13.766;100.702;2022-11-20T03:36:16;11.20;;;3.83;;
73130;SDS011;64204;13.766;100.702;2022-11-20T03:38:45;5.45;;;3.28;;
73130;SDS011;64204;13.766;100.702;2022-11-20T03:41:16;8.30;;;3.65;;
73130;SDS011;64204;13.766;100.702;2022-11-20T03:43:51;7.13;;;4.10;;
73130;SDS011;64204;13.766;100.702;2022-11-20T03:46:19;10.68;;;4.25;;
73130;SDS011;64204;13.766;100.702;2022-11-20T03:48:47;8.25;;;3.50;;
73130;SDS011;64204;13.766;100.702;2022-11-20T03:51:15;8.43;;;3.65;;
73130;SDS011;64204;13.766;100.702;2022-11-20T03:53:44;11.20;;;4.00;;
73130;SDS011;64204;13.766;100.702;2022-11-20T03:56:12;9.57;;;3.65;;
73130;SDS011;64204;13.766;100.702;2022-11-20T03:58:42;5.60;;;3.60;;
73130;SDS011;64204;13.766;100.702;2022-11-20T04:01:10;7.65;;;3.65;;
73130;SDS011;64204;13.766;100.702;2022-11-20T04:03:39;8.65;;;3.30;;
73130;SDS011;64204;13.766;100.702;2022-11-20T04:06:14;10.77;;;3.97;;
73130;SDS011;64204;13.766;100.702;2022-11-20T04:08:43;8.30;;;3.92;;
73130;SDS011;64204;13.766;100.702;2022-11-20T04:13:58;12.27;;;4.03;;
73130;SDS011;64204;13.766;100.702;2022-11-20T04:16:28;8.43;;;4.00;;
73130;SDS011;64204;13.766;100.702;2022-11-20T04:18:57;10.45;;;4.15;;
73130;SDS011;64204;13.766;100.702;2022-11-20T04:21:30;12.45;;;3.92;;
73130;SDS011;64204;13.766;100.702;2022-11-20T04:23:57;7.18;;;3.47;;
73130;SDS011;64204;13.766;100.702;2022-11-20T04:26:25;6.43;;;3.45;;
73130;SDS011;64204;13.766;100.702;2022-11-20T04:28:53;8.15;;;3.92;;
73130;SDS011;64204;13.766;100.702;2022-11-20T04:31:21;10.25;;;3.90;;
73130;SDS011;64204;13.766;100.702;2022-11-20T04:33:50;8.18;;;3.72;;
73130;SDS011;64204;13.766;100.702;2022-11-20T04:36:18;6.78;;;3.28;;
73130;SDS011;64204;13.766;100.702;2022-11-20T04:38:53;5.30;;;2.85;;
73130;SDS011;64204;13.766;100.702;2022-11-20T04:41:25;5.25;;;2.45;;
73130;SDS011;64204;13.766;100.702;2022-11-20T04:43:56;6.45;;;2.88;;
73130;SDS011;64204;13.766;100.702;2022-11-20T04:46:29;6.72;;;2.97;;
73130;SDS011;64204;13.766;100.702;2022-11-20T04:49:01;9.82;;;3.10;;
73130;SDS011;64204;13.766;100.702;2022-11-20T04:51:31;6.88;;;2.80;;
73130;SDS011;64204;13.766;100.702;2022-11-20T04:54:05;10.23;;;2.88;;
73130;SDS011;64204;13.766;100.702;2022-11-20T04:56:32;6.68;;;3.25;;
73130;SDS011;64204;13.766;100.702;2022-11-20T04:59:02;9.77;;;3.60;;
73130;SDS011;64204;13.766;100.702;2022-11-20T05:01:29;6.15;;;2.95;;
73130;SDS011;64204;13.766;100.702;2022-11-20T05:04:00;10.50;;;3.97;;
73130;SDS011;64204;13.766;100.702;2022-11-20T05:06:27;8.20;;;3.55;;
73130;SDS011;64204;13.766;100.702;2022-11-20T05:08:54;6.32;;;3.67;;
73130;SDS011;64204;13.766;100.702;2022-11-20T05:11:21;8.05;;;3.70;;
73130;SDS011;64204;13.766;100.702;2022-11-20T05:14:05;6.60;;;3.88;;
73130;SDS011;64204;13.766;100.702;2022-11-20T05:16:33;5.93;;;3.60;;
73130;SDS011;64204;13.766;100.702;2022-11-20T05:19:01;11.48;;;3.83;;
73130;SDS011;64204;13.766;100.702;2022-11-20T05:21:30;6.78;;;3.40;;
73130;SDS011;64204;13.766;100.702;2022-11-20T05:23:57;7.40;;;3.80;;
73130;SDS011;64204;13.766;100.702;2022-11-20T05:26:27;10.68;;;4.55;;
73130;SDS011;64204;13.766;100.702;2022-11-20T05:28:56;8.30;;;3.70;;
73130;SDS011;64204;13.766;100.702;2022-11-20T05:31:26;6.60;;;3.20;;
73130;SDS011;64204;13.766;100.702;2022-11-20T05:33:52;10.93;;;3.10;;
73130;SDS011;64204;13.766;100.702;2022-11-20T05:36:19;5.68;;;2.65;;
73130;SDS011;64204;13.766;100.702;2022-11-20T05:38:46;14.73;;;3.83;;
73130;SDS011;64204;13.766;100.702;2022-11-20T05:41:14;9.30;;;3.33;;
73130;SDS011;64204;13.766;100.702;2022-11-20T05:43:43;7.25;;;2.92;;
73130;SDS011;64204;13.766;100.702;2022-11-20T05:46:12;8.65;;;3.85;;
73130;SDS011;64204;13.766;100.702;2022-11-20T05:48:41;6.85;;;3.53;;
73130;SDS011;64204;13.766;100.702;2022-11-20T05:51:10;7.80;;;3.40;;
73130;SDS011;64204;13.766;100.702;2022-11-20T05:53:38;7.72;;;3.50;;
73130;SDS011;64204;13.766;100.702;2022-11-20T05:56:13;6.05;;;3.80;;
73130;SDS011;64204;13.766;100.702;2022-11-20T05:58:43;5.90;;;3.17;;
73130;SDS011;64204;13.766;100.702;2022-11-20T06:01:15;8.85;;;3.67;;
73130;SDS011;64204;13.766;100.702;2022-11-20T06:03:44;9.68;;;4.25;;
73130;SDS011;64204;13.766;100.702;2022-11-20T06:06:14;7.78;;;3.67;;
73130;SDS011;64204;13.766;100.702;2022-11-20T06:08:41;8.50;;;4.03;;
73130;SDS011;64204;13.766;100.702;2022-11-20T06:11:09;9.57;;;3.67;;
73130;SDS011;64204;13.766;100.702;2022-11-20T06:16:03;7.97;;;4.38;;
73130;SDS011;64204;13.766;100.702;2022-11-20T06:18:32;9.60;;;4.07;;
73130;SDS011;64204;13.766;100.702;2022-11-20T06:21:06;6.80;;;3.70;;
73130;SDS011;64204;13.766;100.702;2022-11-20T06:23:40;8.07;;;3.83;;
73130;SDS011;64204;13.766;100.702;2022-11-20T06:26:10;6.75;;;3.70;;
73130;SDS011;64204;13.766;100.702;2022-11-20T06:28:42;7.50;;;3.90;;
73130;SDS011;64204;13.766;100.702;2022-11-20T06:31:10;8.30;;;4.03;;
73130;SDS011;64204;13.766;100.702;2022-11-20T06:33:39;9.18;;;3.85;;
73130;SDS011;64204;13.766;100.702;2022-11-20T06:36:06;11.55;;;4.20;;
73130;SDS011;64204;13.766;100.702;2022-11-20T06:38:33;7.63;;;3.58;;
73130;SDS011;64204;13.766;100.702;2022-11-20T06:40:59;6.80;;;2.70;;
73130;SDS011;64204;13.766;100.702;2022-11-20T06:43:28;8.10;;;3.38;;
73130;SDS011;64204;13.766;100.702;2022-11-20T06:45:55;8.45;;;3.53;;
73130;SDS011;64204;13.766;100.702;2022-11-20T06:48:23;7.95;;;3.67;;
73130;SDS011;64204;13.766;100.702;2022-11-20T06:50:52;8.27;;;3.08;;
73130;SDS011;64204;13.766;100.702;2022-11-20T06:53:19;6.75;;;2.47;;
73130;SDS011;64204;13.766;100.702;2022-11-20T06:55:46;8.00;;;3.22;;
73130;SDS011;64204;13.766;100.702;2022-11-20T06:58:14;6.53;;;2.95;;
73130;SDS011;64204;13.766;100.702;2022-11-20T07:00:43;6.22;;;2.90;;
73130;SDS011;64204;13.766;100.702;2022-11-20T07:03:10;6.93;;;2.92;;
73130;SDS011;64204;13.766;100.702;2022-11-20T07:05:38;6.18;;;2.50;;
73130;SDS011;64204;13.766;100.702;2022-11-20T07:08:07;6.88;;;2.80;;
73130;SDS011;64204;13.766;100.702;2022-11-20T07:10:33;5.07;;;2.30;;
73130;SDS011;64204;13.766;100.702;2022-11-20T07:13:00;5.13;;;2.80;;
73130;SDS011;64204;13.766;100.702;2022-11-20T07:15:27;6.05;;;2.70;;
73130;SDS011;64204;13.766;100.702;2022-11-20T07:17:54;6.32;;;2.90;;
73130;SDS011;64204;13.766;100.702;2022-11-20T07:20:20;3.72;;;2.38;;
73130;SDS011;64204;13.766;100.702;2022-11-20T07:22:52;5.85;;;2.85;;
73130;SDS011;64204;13.766;100.702;2022-11-20T07:25:21;6.22;;;2.47;;
73130;SDS011;64204;13.766;100.702;2022-11-20T07:28:03;7.88;;;2.60;;
73130;SDS011;64204;13.766;100.702;2022-11-20T07:30:30;3.75;;;2.33;;
73130;SDS011;64204;13.766;100.702;2022-11-20T07:35:43;5.45;;;2.45;;
73130;SDS011;64204;13.766;100.702;2022-11-20T07:38:10;6.40;;;2.60;;
73130;SDS011;64204;13.766;100.702;2022-11-20T07:40:37;8.13;;;2.60;;
73130;SDS011;64204;13.766;100.702;2022-11-20T07:43:04;7.13;;;2.45;;
73130;SDS011;64204;13.766;100.702;2022-11-20T07:45:30;5.05;;;2.70;;
73130;SDS011;64204;13.766;100.702;2022-11-20T07:47:57;6.30;;;2.83;;
73130;SDS011;64204;13.766;100.702;2022-11-20T07:50:24;7.70;;;3.22;;
73130;SDS011;64204;13.766;100.702;2022-11-20T07:52:51;8.63;;;3.00;;
73130;SDS011;64204;13.766;100.702;2022-11-20T07:55:18;5.40;;;3.15;;
73130;SDS011;64204;13.766;100.702;2022-11-20T07:57:44;4.72;;;2.88;;
73130;SDS011;64204;13.766;100.702;2022-11-20T08:00:11;7.53;;;3.03;;
73130;SDS011;64204;13.766;100.702;2022-11-20T08:02:41;4.03;;;3.20;;
73130;SDS011;64204;13.766;100.702;2022-11-20T08:05:08;5.93;;;3.35;;
73130;SDS011;64204;13.766;100.702;2022-11-20T08:07:36;6.35;;;3.90;;
73130;SDS011;64204;13.766;100.702;2022-11-20T08:10:04;10.55;;;4.53;;
73130;SDS011;64204;13.766;100.702;2022-11-20T08:12:31;5.95;;;2.60;;
73130;SDS011;64204;13.766;100.702;2022-11-20T08:15:17;6.88;;;4.05;;
73130;SDS011;64204;13.766;100.702;2022-11-20T08:17:44;5.93;;;3.33;;
73130;SDS011;64204;13.766;100.702;2022-11-20T08:20:11;7.70;;;3.10;;
73130;SDS011;64204;13.766;100.702;2022-11-20T08:22:38;8.57;;;3.28;;
73130;SDS011;64204;13.766;100.702;2022-11-20T08:25:14;4.70;;;2.90;;
73130;SDS011;64204;13.766;100.702;2022-11-20T08:27:41;8.60;;;2.80;;
73130;SDS011;64204;13.766;100.702;2022-11-20T08:30:07;4.15;;;2.50;;
73130;SDS011;64204;13.766;100.702;2022-11-20T08:32:35;10.20;;;3.55;;
73130;SDS011;64204;13.766;100.702;2022-11-20T08:35:03;8.18;;;3.85;;
73130;SDS011;64204;13.766;100.702;2022-11-20T08:37:30;6.43;;;2.75;;
73130;SDS011;64204;13.766;100.702;2022-11-20T08:39:57;6.28;;;2.88;;
73130;SDS011;64204;13.766;100.702;2022-11-20T08:42:23;6.35;;;3.17;;
73130;SDS011;64204;13.766;100.702;2022-11-20T08:44:50;6.05;;;2.97;;
73130;SDS011;64204;13.766;100.702;2022-11-20T08:47:19;6.07;;;2.78;;
73130;SDS011;64204;13.766;100.702;2022-11-20T08:49:46;6.50;;;3.50;;
73130;SDS011;64204;13.766;100.702;2022-11-20T08:52:12;6.22;;;2.55;;
73130;SDS011;64204;13.766;100.702;2022-11-20T08:54:39;5.25;;;2.83;;
73130;SDS011;64204;13.766;100.702;2022-11-20T08:57:06;5.40;;;2.75;;
73130;SDS011;64204;13.766;100.702;2022-11-20T08:59:32;5.20;;;3.15;;
73130;SDS011;64204;13.766;100.702;2022-11-20T09:01:59;6.80;;;3.10;;
73130;SDS011;64204;13.766;100.702;2022-11-20T09:04:25;8.27;;;2.83;;
73130;SDS011;64204;13.766;100.702;2022-11-20T09:06:52;5.50;;;2.60;;
73130;SDS011;64204;13.766;100.702;2022-11-20T09:09:19;5.13;;;3.20;;
73130;SDS011;64204;13.766;100.702;2022-11-20T09:11:46;5.15;;;2.85;;
73130;SDS011;64204;13.766;100.702;2022-11-20T09:14:19;5.10;;;2.88;;
73130;SDS011;64204;13.766;100.702;2022-11-20T09:17:01;5.32;;;2.88;;
73130;SDS011;64204;13.766;100.702;2022-11-20T09:21:54;3.90;;;2.40;;
73130;SDS011;64204;13.766;100.702;2022-11-20T09:24:21;6.05;;;2.47;;
73130;SDS011;64204;13.766;100.702;2022-11-20T09:26:50;5.53;;;2.42;;
73130;SDS011;64204;13.766;100.702;2022-11-20T09:29:17;5.90;;;2.53;;
73130;SDS011;64204;13.766;100.702;2022-11-20T09:31:44;9.00;;;2.50;;
73130;SDS011;64204;13.766;100.702;2022-11-20T09:34:10;5.93;;;2.50;;
73130;SDS011;64204;13.766;100.702;2022-11-20T09:36:37;10.18;;;4.18;;
73130;SDS011;64204;13.766;100.702;2022-11-20T09:39:04;5.53;;;2.95;;
73130;SDS011;64204;13.766;100.702;2022-11-20T09:44:57;4.72;;;1.98;;
73130;SDS011;64204;13.766;100.702;2022-11-20T09:53:51;6.32;;;3.40;;
73130;SDS011;64204;13.766;100.702;2022-11-20T09:56:42;9.20;;;3.88;;
73130;SDS011;64204;13.766;100.702;2022-11-20T09:59:40;8.35;;;3.63;;
73130;SDS011;64204;13.766;100.702;2022-11-20T10:02:25;12.23;;;4.30;;
73130;SDS011;64204;13.766;100.702;2022-11-20T10:05:23;7.82;;;3.60;;
73130;SDS011;64204;13.766;100.702;2022-11-20T10:17:02;6.50;;;3.45;;
73130;SDS011;64204;13.766;100.702;2022-11-20T10:25:43;7.70;;;3.28;;
73130;SDS011;64204;13.766;100.702;2022-11-20T10:31:50;8.73;;;4.03;;
73130;SDS011;64204;13.766;100.702;2022-11-20T10:37:23;8.52;;;3.45;;
73130;SDS011;64204;13.766;100.702;2022-11-20T10:40:05;6.50;;;3.40;;
73130;SDS011;64204;13.766;100.702;2022-11-20T10:42:57;5.55;;;3.17;;
73130;SDS011;64204;13.766;100.702;2022-11-20T10:45:32;7.82;;;3.45;;
73130;SDS011;64204;13.766;100.702;2022-11-20T10:48:26;7.72;;;3.30;;
73130;SDS011;64204;13.766;100.702;2022-11-20T10:50:56;5.97;;;3.65;;
73130;SDS011;64204;13.766;100.702;2022-11-20T10:54:05;5.57;;;3.35;;
73130;SDS011;64204;13.766;100.702;2022-11-20T10:56:42;5.88;;;3.63;;
73130;SDS011;64204;13.766;100.702;2022-11-20T10:59:27;7.80;;;3.63;;
73130;SDS011;64204;13.766;100.702;2022-11-20T11:02:22;10.32;;;4.47;;
73130;SDS011;64204;13.766;100.702;2022-11-20T11:04:55;9.45;;;4.85;;
73130;SDS011;64204;13.766;100.702;2022-11-20T11:13:03;10.18;;;4.63;;
73130;SDS011;64204;13.766;100.702;2022-11-20T11:15:36;8.60;;;4.55;;
73130;SDS011;64204;13.766;100.702;2022-11-20T11:18:04;9.98;;;4.50;;
73130;SDS011;64204;13.766;100.702;2022-11-20T11:20:34;9.65;;;4.38;;
73130;SDS011;64204;13.766;100.702;2022-11-20T11:23:01;8.70;;;4.28;;
73130;SDS011;64204;13.766;100.702;2022-11-20T11:25:33;7.63;;;4.22;;
73130;SDS011;64204;13.766;100.702;2022-11-20T11:28:03;10.18;;;4.88;;
73130;SDS011;64204;13.766;100.702;2022-11-20T11:30:46;8.13;;;3.90;;
73130;SDS011;64204;13.766;100.702;2022-11-20T11:33:32;9.55;;;4.47;;
73130;SDS011;64204;13.766;100.702;2022-11-20T11:36:00;13.38;;;5.03;;
73130;SDS011;64204;13.766;100.702;2022-11-20T11:41:30;9.95;;;4.43;;
73130;SDS011;64204;13.766;100.702;2022-11-20T11:47:10;13.02;;;4.43;;
73130;SDS011;64204;13.766;100.702;2022-11-20T11:49:48;10.50;;;4.68;;
73130;SDS011;64204;13.766;100.702;2022-11-20T11:52:17;9.57;;;4.25;;
73130;SDS011;64204;13.766;100.702;2022-11-20T11:54:49;10.68;;;4.30;;
73130;SDS011;64204;13.766;100.702;2022-11-20T12:00:13;6.85;;;2.80;;
73130;SDS011;64204;13.766;100.702;2022-11-20T12:05:37;5.45;;;2.60;;
73130;SDS011;64204;13.766;100.702;2022-11-20T12:08:14;7.00;;;2.33;;
73130;SDS011;64204;13.766;100.702;2022-11-20T12:16:30;6.40;;;3.05;;
73130;SDS011;64204;13.766;100.702;2022-11-20T12:19:00;5.13;;;2.05;;
73130;SDS011;64204;13.766;100.702;2022-11-20T12:30:28;4.65;;;2.88;;
73130;SDS011;64204;13.766;100.702;2022-11-20T12:39:12;6.60;;;3.72;;
73130;SDS011;64204;13.766;100.702;2022-11-20T12:42:13;7.22;;;2.95;;
73130;SDS011;64204;13.766;100.702;2022-11-20T12:45:42;8.60;;;3.38;;
73130;SDS011;64204;13.766;100.702;2022-11-20T12:48:41;5.78;;;2.88;;
73130;SDS011;64204;13.766;100.702;2022-11-20T12:54:29;7.22;;;3.33;;
73130;SDS011;64204;13.766;100.702;2022-11-20T12:57:21;8.02;;;3.30;;
73130;SDS011;64204;13.766;100.702;2022-11-20T13:00:22;8.65;;;3.85;;
73130;SDS011;64204;13.766;100.702;2022-11-20T13:05:59;4.65;;;2.70;;
73130;SDS011;64204;13.766;100.702;2022-11-20T13:08:52;7.20;;;2.40;;
73130;SDS011;64204;13.766;100.702;2022-11-20T13:11:25;5.70;;;3.03;;
73130;SDS011;64204;13.766;100.702;2022-11-20T13:17:22;5.80;;;3.13;;
73130;SDS011;64204;13.766;100.702;2022-11-20T13:20:01;5.45;;;3.00;;
73130;SDS011;64204;13.766;100.702;2022-11-20T13:25:23;7.07;;;2.72;;
73130;SDS011;64204;13.766;100.702;2022-11-20T13:27:51;5.95;;;2.72;;
73130;SDS011;64204;13.766;100.702;2022-11-20T13:30:19;6.25;;;2.72;;
73130;SDS011;64204;13.766;100.702;2022-11-20T13:32:54;9.05;;;3.28;;
73130;SDS011;64204;13.766;100.702;2022-11-20T13:35:32;6.18;;;2.97;;
73130;SDS011;64204;13.766;100.702;2022-11-20T13:38:11;6.07;;;3.22;;
73130;SDS011;64204;13.766;100.702;2022-11-20T13:43:46;8.02;;;3.33;;
73130;SDS011;64204;13.766;100.702;2022-11-20T13:46:14;6.90;;;3.35;;
73130;SDS011;64204;13.766;100.702;2022-11-20T13:48:42;6.05;;;3.40;;
73130;SDS011;64204;13.766;100.702;2022-11-20T13:51:13;6.47;;;2.88;;
73130;SDS011;64204;13.766;100.702;2022-11-20T14:00:09;8.57;;;4.57;;
73130;SDS011;64204;13.766;100.702;2022-11-20T14:07:54;8.40;;;3.65;;
73130;SDS011;64204;13.766;100.702;2022-11-20T14:10:28;7.22;;;3.42;;
73130;SDS011;64204;13.766;100.702;2022-11-20T14:15:24;6.80;;;3.40;;
73130;SDS011;64204;13.766;100.702;2022-11-20T14:17:54;8.82;;;3.65;;
73130;SDS011;64204;13.766;100.702;2022-11-20T14:20:26;6.90;;;3.20;;
73130;SDS011;64204;13.766;100.702;2022-11-20T14:22:54;7.60;;;3.58;;
73130;SDS011;64204;13.766;100.702;2022-11-20T14:25:22;5.50;;;3.17;;
73130;SDS011;64204;13.766;100.702;2022-11-20T14:27:57;7.28;;;3.50;;
73130;SDS011;64204;13.766;100.702;2022-11-20T14:30:26;8.90;;;4.25;;
73130;SDS011;64204;13.766;100.702;2022-11-20T14:33:02;6.53;;;3.80;;
73130;SDS011;64204;13.766;100.702;2022-11-20T14:35:30;7.82;;;4.63;;
73130;SDS011;64204;13.766;100.702;2022-11-20T14:38:01;5.65;;;3.88;;
73130;SDS011;64204;13.766;100.702;2022-11-20T14:40:32;10.48;;;5.13;;
73130;SDS011;64204;13.766;100.702;2022-11-20T14:46:00;10.35;;;4.65;;
73130;SDS011;64204;13.766;100.702;2022-11-20T14:48:33;9.20;;;4.22;;
73130;SDS011;64204;13.766;100.702;2022-11-20T14:51:05;11.25;;;4.72;;
73130;SDS011;64204;13.766;100.702;2022-11-20T14:53:34;10.60;;;4.75;;
73130;SDS011;64204;13.766;100.702;2022-11-20T14:56:02;11.32;;;4.53;;
73130;SDS011;64204;13.766;100.702;2022-11-20T14:58:33;6.93;;;4.47;;
73130;SDS011;64204;13.766;100.702;2022-11-20T15:01:02;8.63;;;4.05;;
73130;SDS011;64204;13.766;100.702;2022-11-20T15:03:31;8.15;;;4.70;;
73130;SDS011;64204;13.766;100.702;2022-11-20T15:06:03;8.60;;;5.13;;
73130;SDS011;64204;13.766;100.702;2022-11-20T15:08:34;11.18;;;4.82;;
73130;SDS011;64204;13.766;100.702;2022-11-20T15:11:00;8.88;;;4.50;;
73130;SDS011;64204;13.766;100.702;2022-11-20T15:13:37;8.10;;;3.90;;
73130;SDS011;64204;13.766;100.702;2022-11-20T15:18:52;10.63;;;4.90;;
73130;SDS011;64204;13.766;100.702;2022-11-20T15:21:19;8.18;;;5.38;;
73130;SDS011;64204;13.766;100.702;2022-11-20T15:23:49;10.05;;;5.93;;
73130;SDS011;64204;13.766;100.702;2022-11-20T15:26:20;9.95;;;6.22;;
73130;SDS011;64204;13.766;100.702;2022-11-20T15:28:50;15.18;;;7.22;;
73130;SDS011;64204;13.766;100.702;2022-11-20T15:31:18;10.18;;;6.15;;
73130;SDS011;64204;13.766;100.702;2022-11-20T15:33:46;10.10;;;5.95;;
73130;SDS011;64204;13.766;100.702;2022-11-20T15:36:13;12.55;;;6.63;;
73130;SDS011;64204;13.766;100.702;2022-11-20T15:38:40;12.10;;;6.30;;
73130;SDS011;64204;13.766;100.702;2022-11-20T15:41:07;11.38;;;6.35;;
73130;SDS011;64204;13.766;100.702;2022-11-20T15:43:34;12.50;;;7.18;;
73130;SDS011;64204;13.766;100.702;2022-11-20T15:46:03;10.60;;;6.95;;
73130;SDS011;64204;13.766;100.702;2022-11-20T15:54:10;11.15;;;6.65;;
73130;SDS011;64204;13.766;100.702;2022-11-20T15:56:39;9.18;;;5.80;;
73130;SDS011;64204;13.766;100.702;2022-11-20T15:59:05;11.40;;;7.05;;
73130;SDS011;64204;13.766;100.702;2022-11-20T16:01:32;14.20;;;8.55;;
73130;SDS011;64204;13.766;100.702;2022-11-20T16:03:59;9.95;;;6.53;;
73130;SDS011;64204;13.766;100.702;2022-11-20T16:06:26;12.45;;;7.07;;
73130;SDS011;64204;13.766;100.702;2022-11-20T16:08:53;10.75;;;7.28;;
73130;SDS011;64204;13.766;100.702;2022-11-20T16:11:20;13.02;;;6.82;;
73130;SDS011;64204;13.766;100.702;2022-11-20T16:13:46;12.85;;;7.07;;
73130;SDS011;64204;13.766;100.702;2022-11-20T16:16:34;10.35;;;6.68;;
73130;SDS011;64204;13.766;100.702;2022-11-20T16:19:03;10.95;;;6.68;;
73130;SDS011;64204;13.766;100.702;2022-11-20T16:21:30;10.40;;;6.30;;
73130;SDS011;64204;13.766;100.702;2022-11-20T16:24:04;9.02;;;5.80;;
73130;SDS011;64204;13.766;100.702;2022-11-20T16:26:32;14.48;;;7.28;;
73130;SDS011;64204;13.766;100.702;2022-11-20T16:28:59;9.90;;;6.90;;
73130;SDS011;64204;13.766;100.702;2022-11-20T16:31:28;11.13;;;7.47;;
73130;SDS011;64204;13.766;100.702;2022-11-20T16:33:55;10.00;;;6.43;;
73130;SDS011;64204;13.766;100.702;2022-11-20T16:36:23;9.80;;;6.75;;
73130;SDS011;64204;13.766;100.702;2022-11-20T16:38:51;9.93;;;7.00;;
73130;SDS011;64204;13.766;100.702;2022-11-20T16:41:19;14.07;;;6.88;;
73130;SDS011;64204;13.766;100.702;2022-11-20T16:43:47;11.50;;;6.78;;
73130;SDS011;64204;13.766;100.702;2022-11-20T16:46:15;9.50;;;5.97;;
73130;SDS011;64204;13.766;100.702;2022-11-20T16:51:10;13.10;;;6.55;;